createdAt,value
2023-05-25T00:04:22.372Z,78.00
2023-05-25T00:09:26.050Z,77.56
2023-05-25T00:14:31.449Z,79.48
2023-05-25T00:19:35.132Z,78.45
2023-05-25T00:24:43.907Z,79.72
2023-05-25T00:29:47.957Z,80.51
2023-05-25T00:34:51.795Z,80.33
2023-05-25T00:39:55.230Z,80.04
2023-05-25T00:44:59.191Z,80.10
2023-05-25T00:50:04.428Z,79.26
2023-05-25T00:55:13.592Z,77.79
2023-05-25T01:00:18.413Z,77.06
2023-05-25T01:05:25.560Z,77.29
2023-05-25T01:10:32.617Z,76.58
2023-05-25T01:15:39.678Z,78.26
2023-05-25T01:20:59.739Z,78.60
2023-05-25T01:26:07.922Z,78.25
2023-05-25T01:31:12.154Z,78.48
2023-05-25T01:36:15.890Z,81.12
2023-05-25T01:41:19.545Z,80.30
2023-05-25T01:46:39.162Z,79.58
2023-05-25T01:51:56.069Z,78.79
2023-05-25T01:57:02.522Z,78.78
2023-05-25T02:02:07.557Z,78.07
2023-05-25T02:07:12.449Z,78.41
2023-05-25T02:12:16.046Z,79.73
2023-05-25T02:17:20.056Z,80.04
2023-05-25T02:22:24.706Z,78.82
2023-05-25T02:27:28.521Z,77.78
2023-05-25T02:32:33.945Z,77.22
2023-05-25T02:37:39.746Z,75.61
2023-05-25T02:42:45.493Z,74.87
2023-05-25T02:47:49.351Z,76.30
2023-05-25T02:52:53.727Z,77.03
2023-05-25T02:57:58.788Z,77.42
2023-05-25T03:03:27.117Z,78.94
2023-05-25T03:08:31.837Z,79.98
2023-05-25T03:13:36.740Z,80.93
2023-05-25T03:18:41.030Z,81.59
2023-05-25T03:23:46.076Z,82.29
2023-05-25T03:28:50.359Z,83.61
2023-05-25T03:33:54.213Z,84.14
2023-05-25T03:39:03.700Z,85.81
2023-05-25T03:44:08.026Z,88.65
2023-05-25T03:49:14.369Z,90.98
2023-05-25T03:54:18.817Z,92.46
2023-05-25T03:59:26.009Z,93.77
2023-05-25T04:04:30.273Z,94.16
2023-05-25T04:09:34.881Z,92.58
2023-05-25T04:14:38.728Z,91.13
2023-05-25T04:19:42.105Z,89.82
2023-05-25T04:24:47.629Z,86.73
2023-05-25T04:29:51.687Z,84.14
2023-05-25T04:35:21.777Z,81.74
2023-05-25T04:40:28.322Z,81.97
2023-05-25T04:45:33.589Z,81.34
2023-05-25T04:50:40.445Z,81.19
2023-05-25T04:55:45.443Z,80.78
2023-05-25T05:00:51.273Z,80.89
2023-05-25T05:05:57.555Z,80.59
2023-05-25T05:11:05.082Z,78.30
2023-05-25T05:16:09.618Z,77.40
2023-05-25T05:21:12.966Z,75.74
2023-05-25T05:26:16.754Z,74.15
2023-05-25T05:31:20.697Z,75.74
2023-05-25T05:36:24.220Z,75.70
2023-05-25T05:41:28.287Z,73.67
2023-05-25T05:46:34.276Z,73.66
2023-05-25T05:51:38.670Z,72.12
2023-05-25T05:56:42.772Z,70.62
2023-05-25T06:01:46.732Z,68.37
2023-05-25T06:06:51.999Z,67.03
2023-05-25T06:11:55.501Z,67.16
2023-05-25T06:16:59.465Z,60.36
2023-05-25T06:22:02.913Z,55.93
2023-05-25T06:27:06.995Z,52.43
2023-05-25T06:32:13.240Z,49.83
2023-05-25T06:37:18.156Z,47.12
2023-05-25T06:42:21.739Z,44.34
2023-05-25T06:47:32.981Z,44.05
2023-05-25T06:52:36.381Z,43.87
2023-05-25T06:57:39.754Z,43.01
2023-05-25T07:02:43.354Z,42.59
2023-05-25T07:07:47.136Z,45.96
2023-05-25T07:12:50.900Z,45.04
2023-05-25T07:17:57.574Z,47.16
2023-05-25T07:23:01.855Z,47.76
2023-05-25T07:28:06.218Z,52.37
2023-05-25T07:33:09.691Z,49.96
2023-05-25T07:38:13.290Z,49.15
2023-05-25T07:43:16.848Z,49.02
2023-05-25T07:48:21.308Z,50.67
2023-05-25T07:53:25.452Z,51.44
2023-05-25T07:58:29.632Z,49.79
2023-05-25T08:03:47.997Z,47.51
2023-05-25T08:08:52.891Z,51.54
2023-05-25T08:13:56.442Z,50.89
2023-05-25T08:19:01.960Z,49.72
2023-05-25T08:24:05.607Z,49.51
2023-05-25T08:29:09.974Z,46.95
2023-05-25T08:34:13.189Z,45.97
2023-05-25T08:39:17.418Z,42.96
2023-05-25T08:44:22.393Z,43.25
2023-05-25T08:49:28.678Z,43.47
2023-05-25T08:54:37.098Z,42.03
2023-05-25T08:59:57.777Z,42.35
2023-05-25T09:05:02.712Z,42.65
2023-05-25T09:10:08.734Z,44.40
2023-05-25T09:15:13.177Z,41.62
2023-05-25T09:20:19.612Z,41.72
2023-05-25T09:25:26.685Z,42.67
2023-05-25T09:30:33.203Z,42.50
2023-05-25T09:35:38.335Z,40.93
2023-05-25T09:40:42.136Z,40.09
2023-05-25T09:45:45.980Z,37.16
2023-05-25T09:50:50.161Z,41.30
2023-05-25T09:55:54.742Z,38.49
2023-05-25T10:00:58.608Z,40.31
2023-05-25T10:06:03.332Z,42.60
2023-05-25T10:11:07.883Z,40.25
2023-05-25T10:16:13.598Z,39.53
2023-05-25T10:21:18.948Z,41.05
2023-05-25T10:26:27.403Z,42.16
2023-05-25T10:31:34.412Z,46.65
2023-05-25T10:36:38.932Z,45.60
2023-05-25T10:41:42.675Z,46.37
2023-05-25T10:46:46.652Z,45.04
2023-05-25T10:52:00.117Z,45.59
2023-05-25T10:57:19.538Z,47.13
2023-05-25T11:02:26.072Z,46.55
2023-05-25T11:07:29.700Z,44.12
2023-05-25T11:12:33.461Z,43.56
2023-05-25T11:18:00.427Z,43.32
2023-05-25T11:23:24.286Z,42.62
2023-05-25T11:28:33.038Z,43.02
2023-05-25T11:33:37.403Z,44.97
2023-05-25T11:39:04.381Z,45.49
2023-05-25T11:50:17.737Z,46.99
2023-05-25T11:55:22.030Z,47.56
2023-05-25T12:00:28.710Z,46.40
2023-05-25T12:05:39.190Z,43.77
2023-05-25T12:10:55.202Z,43.10
2023-05-25T12:16:00.596Z,43.20
2023-05-25T12:21:08.579Z,42.04
2023-05-25T12:26:14.335Z,42.06
2023-05-25T12:31:25.092Z,39.30
2023-05-25T12:36:39.021Z,41.36
2023-05-25T12:41:53.975Z,41.60
2023-05-25T12:47:17.642Z,41.82
2023-05-25T12:52:35.741Z,43.35
2023-05-25T12:57:39.433Z,41.23
2023-05-25T13:02:48.044Z,40.90
2023-05-25T13:07:58.243Z,39.62
2023-05-25T13:13:03.785Z,40.51
2023-05-25T13:18:06.951Z,38.45
2023-05-25T13:23:11.003Z,41.66
2023-05-25T13:28:14.360Z,39.32
2023-05-25T13:33:18.277Z,37.13
2023-05-25T13:38:22.723Z,38.32
2023-05-25T13:43:26.897Z,40.93
2023-05-25T13:48:30.780Z,43.69
2023-05-25T13:53:34.006Z,40.55
2023-05-25T13:58:38.062Z,42.32
2023-05-25T14:03:42.094Z,42.78
2023-05-25T14:08:45.665Z,40.60
2023-05-25T14:13:49.287Z,38.74
2023-05-25T14:18:53.284Z,43.43
2023-05-25T14:23:57.707Z,41.68
2023-05-25T14:29:02.392Z,40.74
2023-05-25T14:34:05.539Z,40.87
2023-05-25T14:39:11.506Z,43.71
2023-05-25T14:44:16.920Z,43.60
2023-05-25T14:49:25.123Z,44.25
2023-05-25T14:54:28.320Z,43.37
2023-05-25T14:59:32.164Z,44.98
2023-05-25T15:04:35.371Z,44.14
2023-05-25T15:09:39.294Z,46.14
2023-05-25T15:14:43.148Z,48.01
2023-05-25T15:19:47.119Z,48.21
2023-05-25T15:24:50.473Z,49.04
2023-05-25T15:29:54.278Z,51.15
2023-05-25T15:34:57.519Z,51.06
2023-05-25T15:40:00.855Z,50.52
2023-05-25T15:45:05.082Z,50.77
2023-05-25T15:50:08.531Z,51.58
2023-05-25T15:55:12.538Z,51.43
2023-05-25T16:00:17.804Z,48.72
2023-05-25T16:05:21.925Z,50.00
2023-05-25T16:10:25.574Z,50.46
2023-05-25T16:15:30.097Z,51.81
2023-05-25T16:20:33.516Z,53.17
2023-05-25T16:25:37.102Z,52.09
2023-05-25T16:30:41.047Z,50.86
2023-05-25T16:35:45.007Z,52.55
2023-05-25T16:40:48.842Z,52.43
2023-05-25T16:45:52.399Z,52.95
2023-05-25T16:50:56.614Z,54.61
2023-05-25T16:55:59.846Z,53.98
2023-05-25T17:01:03.821Z,55.62
2023-05-25T17:06:08.113Z,57.85
2023-05-25T17:11:11.955Z,56.14
2023-05-25T17:16:15.412Z,58.13
2023-05-25T17:21:18.673Z,58.34
2023-05-25T17:26:24.412Z,57.58
2023-05-25T17:31:30.736Z,56.90
2023-05-25T17:36:34.962Z,55.31
2023-05-25T17:41:39.121Z,57.12
2023-05-25T17:46:43.421Z,56.30
2023-05-25T17:51:47.446Z,57.23
2023-05-25T17:56:51.012Z,55.30
2023-05-25T18:01:55.248Z,53.10
2023-05-25T18:06:58.798Z,54.13
2023-05-25T18:12:03.996Z,53.95
2023-05-25T18:17:07.834Z,53.87
2023-05-25T18:22:11.539Z,53.41
2023-05-25T18:27:15.320Z,53.67
2023-05-25T18:32:18.522Z,53.99
2023-05-25T18:37:23.460Z,54.51
2023-05-25T18:42:26.667Z,54.26
2023-05-25T18:47:30.794Z,54.80
2023-05-25T18:52:34.495Z,55.87
2023-05-25T18:57:38.846Z,54.43
2023-05-25T19:02:43.304Z,54.31
2023-05-25T19:12:53.505Z,53.84
2023-05-25T19:17:57.958Z,54.17
2023-05-25T19:23:01.969Z,53.68
2023-05-25T19:28:06.302Z,54.05
2023-05-25T19:33:10.331Z,55.09
2023-05-25T19:38:14.444Z,55.25
2023-05-25T19:43:18.075Z,55.57
2023-05-25T19:48:24.584Z,55.47
2023-05-25T19:53:29.091Z,56.21
2023-05-25T19:58:32.913Z,56.46
2023-05-25T20:03:36.876Z,55.11
2023-05-25T20:08:41.179Z,56.48
2023-05-25T20:13:46.656Z,56.82
2023-05-25T20:18:50.185Z,57.20
2023-05-25T20:23:53.999Z,57.82
2023-05-25T20:28:58.345Z,56.76
2023-05-25T20:34:01.517Z,56.86
2023-05-25T20:39:04.626Z,57.08
2023-05-25T20:44:09.243Z,58.06
2023-05-25T20:49:13.180Z,57.06
2023-05-25T20:54:19.636Z,56.32
2023-05-25T20:59:23.792Z,56.60
2023-05-25T21:04:28.852Z,56.55
2023-05-25T21:09:34.523Z,55.81
2023-05-25T21:14:37.972Z,55.53
2023-05-25T21:19:42.034Z,55.90
2023-05-25T21:24:45.295Z,55.73
2023-05-25T21:29:49.024Z,56.93
2023-05-25T21:34:53.458Z,57.25
2023-05-25T21:39:57.198Z,58.42
2023-05-25T21:45:00.816Z,59.52
2023-05-25T21:50:04.229Z,57.61
2023-05-25T21:55:08.755Z,58.00
2023-05-25T22:00:14.769Z,57.26
2023-05-25T22:05:19.411Z,59.91
2023-05-25T22:10:23.459Z,59.75
2023-05-25T22:15:27.268Z,59.21
2023-05-25T22:20:31.256Z,59.98
2023-05-25T22:25:34.813Z,58.82
2023-05-25T22:30:38.978Z,59.06
2023-05-25T22:35:42.539Z,60.05
2023-05-25T22:40:48.023Z,60.47
2023-05-25T22:45:54.553Z,60.02
2023-05-25T22:50:58.400Z,61.18
2023-05-25T22:56:02.089Z,60.25
2023-05-25T23:01:05.802Z,60.89
2023-05-25T23:06:09.038Z,61.47
2023-05-25T23:11:13.151Z,62.21
2023-05-25T23:16:19.101Z,62.58
2023-05-25T23:21:23.137Z,61.85
2023-05-25T23:26:27.249Z,62.99
2023-05-25T23:31:31.052Z,62.67
2023-05-25T23:36:34.769Z,62.67
2023-05-25T23:41:39.030Z,62.49
2023-05-25T23:46:42.471Z,62.30
2023-05-25T23:51:46.121Z,61.67
2023-05-25T23:56:49.609Z,61.31
